Time;durP1;ratioP1;P1;durP2;ratioP2;P2;SDS_P1;SDS_P2;PMS_P1;PMS_P2;Temp;Humidity;BMP_temperature;BMP_pressure;BME280_temperature;BME280_humidity;BME280_pressure;Samples;Min_cycle;Max_cycle;Signal;HPM_P1;HPM_P2
2022/02/07 00:00:23;;;;;;;4.93;1.10;;;;;;;2.03;100.00;99831.69;682797;28;883;-49
2022/02/07 00:00:46;;;;;;;6.30;1.30;;;;;;;1.96;100.00;99827.28;682602;28;920;-49
2022/02/07 00:01:20;;;;;;;4.95;1.17;;;;;;;2.03;100.00;99831.69;680411;28;1076;-50
2022/02/07 00:01:47;;;;;;;5.93;1.30;;;;;;;2.02;100.00;99837.72;682548;28;790;-49
2022/02/07 00:02:09;;;;;;;5.50;1.45;;;;;;;2.03;100.00;99831.69;679710;28;5373;-49
2022/02/07 00:02:50;;;;;;;5.03;1.00;;;;;;;2.03;100.00;99842.00;677867;28;1456;-49
2022/02/07 00:03:18;;;;;;;6.53;1.30;;;;;;;1.97;100.00;99841.91;678074;28;1854;-48
2022/02/07 00:03:49;;;;;;;4.80;1.33;;;;;;;1.93;100.00;99844.44;678475;29;876;-50
2022/02/07 00:04:12;;;;;;;4.90;1.00;;;;;;;1.91;100.00;99851.25;675642;28;2203;-50
2022/02/07 00:04:38;;;;;;;5.18;1.20;;;;;;;1.90;100.00;99841.78;681558;28;1018;-49
2022/02/07 00:04:58;;;;;;;5.47;1.20;;;;;;;1.92;100.00;99848.69;681122;28;4343;-49
2022/02/07 00:05:24;;;;;;;5.53;1.27;;;;;;;1.99;100.00;99850.53;678463;28;1259;-49
2022/02/07 00:05:45;;;;;;;5.57;1.38;;;;;;;1.99;100.00;99853.09;679141;29;916;-49
2022/02/07 00:06:05;;;;;;;5.70;1.20;;;;;;;2.09;100.00;99848.13;678001;28;978;-50
2022/02/07 00:06:26;;;;;;;6.78;1.50;;;;;;;1.97;100.00;99857.38;679026;28;1629;-53
2022/02/07 00:06:46;;;;;;;7.78;1.40;;;;;;;1.98;100.00;99859.13;679296;28;1284;-49
2022/02/07 00:07:09;;;;;;;7.47;1.50;;;;;;;1.96;100.00;99855.63;680870;28;1317;-49
2022/02/07 00:07:29;;;;;;;6.00;1.15;;;;;;;1.96;100.00;99857.38;680744;28;3277;-51
2022/02/07 00:07:50;;;;;;;6.00;1.10;;;;;;;1.95;100.00;99864.25;680119;28;4752;-48
2022/02/07 00:08:11;;;;;;;8.65;1.30;;;;;;;1.92;100.00;99863.31;678002;28;1304;-49
2022/02/07 00:08:34;;;;;;;7.55;1.30;;;;;;;1.89;100.00;99871.84;677257;29;1071;-49
2022/02/07 00:08:54;;;;;;;5.40;1.13;;;;;;;1.90;100.00;99865.88;678949;29;1319;-49
2022/02/07 00:09:15;;;;;;;5.38;1.25;;;;;;;1.84;100.00;99866.63;678346;28;891;-51
2022/02/07 00:09:35;;;;;;;7.67;1.60;;;;;;;1.79;100.00;99877.69;679417;28;959;-49
2022/02/07 00:09:55;;;;;;;6.95;1.40;;;;;;;1.79;100.00;99870.81;679674;28;1926;-49
2022/02/07 00:10:16;;;;;;;7.30;1.50;;;;;;;1.81;100.00;99873.41;682118;28;1209;-49
2022/02/07 00:10:39;;;;;;;7.35;1.40;;;;;;;1.80;100.00;99875.13;680490;28;2126;-52
2022/02/07 00:10:59;;;;;;;8.60;1.40;;;;;;;1.80;100.00;99877.72;679841;28;4515;-50
2022/02/07 00:11:21;;;;;;;10.07;2.00;;;;;;;1.83;100.00;99864.88;679251;28;1230;-50
2022/02/07 00:11:41;;;;;;;9.70;1.98;;;;;;;1.91;100.00;99882.19;677973;29;1089;-49
2022/02/07 00:12:02;;;;;;;6.40;1.27;;;;;;;1.95;100.00;99871.97;678986;28;1280;-50
2022/02/07 00:12:22;;;;;;;7.28;1.40;;;;;;;2.06;100.00;99881.59;679237;29;1282;-49
2022/02/07 00:12:45;;;;;;;7.53;1.60;;;;;;;2.04;100.00;99877.25;679727;28;1323;-49
2022/02/07 00:13:06;;;;;;;7.25;1.52;;;;;;;2.06;100.00;99882.44;679179;28;1050;-50
2022/02/07 00:13:27;;;;;;;8.20;1.80;;;;;;;2.06;100.00;99881.59;681729;28;3371;-49
2022/02/07 00:13:47;;;;;;;11.43;1.90;;;;;;;2.14;100.00;99888.59;680732;28;4419;-49
2022/02/07 00:14:08;;;;;;;8.20;1.58;;;;;;;2.14;100.00;99885.16;680716;28;973;-50
2022/02/07 00:14:28;;;;;;;7.07;1.40;;;;;;;2.12;100.00;99879.09;678989;29;1038;-52
2022/02/07 00:14:48;;;;;;;6.05;1.30;;;;;;;2.16;100.00;99883.47;677636;29;1083;-51
2022/02/07 00:15:09;;;;;;;5.93;1.53;;;;;;;2.06;100.00;99887.59;677987;29;1087;-48
2022/02/07 00:15:29;;;;;;;8.13;1.70;;;;;;;2.04;100.00;99877.25;677230;29;885;-49
2022/02/07 00:15:49;;;;;;;7.07;1.53;;;;;;;2.03;100.00;99874.66;676509;29;786;-51
2022/02/07 00:16:10;;;;;;;7.60;1.70;;;;;;;2.03;100.00;99875.53;676376;28;3331;-50
2022/02/07 00:16:32;;;;;;;5.97;1.45;;;;;;;2.00;100.00;99877.19;681349;28;1172;-48
2022/02/07 00:16:52;;;;;;;8.48;1.58;;;;;;;2.02;100.00;99880.66;681446;28;4421;-51
2022/02/07 00:17:13;;;;;;;8.53;1.80;;;;;;;1.99;100.00;99886.63;680056;28;1058;-50
2022/02/07 00:17:34;;;;;;;7.37;1.50;;;;;;;1.95;100.00;99887.44;678949;29;1050;-53
2022/02/07 00:17:54;;;;;;;7.68;1.48;;;;;;;1.92;100.00;99892.53;678289;29;1498;-50
2022/02/07 00:18:16;;;;;;;9.70;1.73;;;;;;;1.89;100.00;99895.03;678713;28;1146;-47
2022/02/07 00:18:38;;;;;;;7.68;1.58;;;;;;;1.89;100.00;99907.09;678778;29;1292;-51
2022/02/07 00:18:58;;;;;;;8.93;1.50;;;;;;;1.84;100.00;99912.13;675370;28;2038;-49
2022/02/07 00:19:23;;;;;;;6.77;1.60;;;;;;;1.82;100.00;99922.41;680052;28;1345;-50
2022/02/07 00:19:44;;;;;;;8.70;1.88;;;;;;;1.78;100.00;99928.34;678599;28;4428;-50
2022/02/07 00:20:10;;;;;;;9.35;1.50;;;;;;;1.79;100.00;99931.81;679251;28;1104;-49
2022/02/07 00:20:30;;;;;;;8.60;1.50;;;;;;;2.01;100.00;99921.06;679679;28;1077;-53
2022/02/07 00:20:51;;;;;;;6.63;1.42;;;;;;;1.99;100.00;99932.16;681041;28;912;-51
2022/02/07 00:21:12;;;;;;;6.50;1.50;;;;;;;1.97;100.00;99926.13;681458;28;969;-52
2022/02/07 00:21:33;;;;;;;8.25;1.58;;;;;;;2.07;100.00;99922.00;680704;28;1315;-50
2022/02/07 00:21:54;;;;;;;6.82;1.60;;;;;;;1.97;100.00;99924.41;681255;28;3536;-49
2022/02/07 00:22:14;;;;;;;8.65;2.00;;;;;;;1.96;100.00;99922.66;680407;28;1564;-50
2022/02/07 00:22:36;;;;;;;8.37;1.77;;;;;;;1.99;100.00;99932.16;680038;28;1288;-48
2022/02/07 00:22:56;;;;;;;7.10;1.45;;;;;;;2.00;100.00;99933.91;680103;28;4406;-52
2022/02/07 00:23:17;;;;;;;8.38;1.55;;;;;;;2.07;100.00;99922.88;682125;28;1066;-51
2022/02/07 00:23:37;;;;;;;8.15;1.88;;;;;;;2.09;100.00;99925.47;680258;28;1657;-50
2022/02/07 00:23:57;;;;;;;10.00;2.00;;;;;;;2.10;100.00;99929.78;677296;28;990;-52
2022/02/07 00:24:18;;;;;;;13.40;2.47;;;;;;;2.15;100.00;99923.00;678693;29;925;-50
2022/02/07 00:24:38;;;;;;;11.80;2.60;;;;;;;2.17;100.00;99923.91;678414;28;3479;-51
2022/02/07 00:24:59;;;;;;;8.73;2.30;;;;;;;2.17;100.00;99927.38;677855;28;1446;-51
2022/02/07 00:25:20;;;;;;;9.20;2.50;;;;;;;2.13;100.00;99923.00;677490;28;2274;-51
2022/02/07 00:25:41;;;;;;;10.23;2.53;;;;;;;2.20;100.00;99922.25;678639;29;893;-53
2022/02/07 00:26:01;;;;;;;12.23;2.70;;;;;;;2.25;100.00;99926.63;676380;28;4550;-49
2022/02/07 00:26:22;;;;;;;10.93;2.92;;;;;;;2.24;100.00;99922.28;679106;28;928;-50
2022/02/07 00:26:42;;;;;;;9.90;2.70;;;;;;;2.19;100.00;99929.97;679466;28;936;-51
2022/02/07 00:27:03;;;;;;;7.90;2.70;;;;;;;2.12;100.00;99928.09;679741;28;968;-49
2022/02/07 00:27:23;;;;;;;9.57;2.63;;;;;;;2.07;100.00;99930.59;682116;28;3154;-52
2022/02/07 00:27:43;;;;;;;9.25;2.55;;;;;;;2.06;100.00;99922.84;677860;28;1934;-50
2022/02/07 00:28:04;;;;;;;7.90;2.63;;;;;;;2.05;100.00;99934.88;677476;29;1206;-49
2022/02/07 00:28:24;;;;;;;8.75;2.35;;;;;;;2.06;100.00;99928.84;679045;29;1099;-51
2022/02/07 00:28:45;;;;;;;6.00;2.30;;;;;;;2.06;100.00;99938.31;676111;29;4601;-50
2022/02/07 00:29:05;;;;;;;8.10;2.50;;;;;;;2.01;100.00;99936.53;674837;29;1253;-50
2022/02/07 00:29:25;;;;;;;8.13;2.50;;;;;;;2.02;100.00;99934.78;675906;29;1161;-52
2022/02/07 00:29:46;;;;;;;8.32;2.33;;;;;;;2.03;100.00;99934.81;678781;29;818;-50
2022/02/07 00:30:09;;;;;;;8.03;2.33;;;;;;;2.16;100.00;99932.47;678876;28;1911;-49
2022/02/07 00:30:29;;;;;;;6.80;2.00;;;;;;;2.14;100.00;99936.75;680648;28;4558;-50
2022/02/07 00:30:50;;;;;;;8.37;2.10;;;;;;;2.09;100.00;99946.09;678807;28;1191;-50
2022/02/07 00:31:11;;;;;;;6.82;2.15;;;;;;;2.13;100.00;99941.03;677708;28;5008;-51
2022/02/07 00:31:33;;;;;;;9.55;2.33;;;;;;;2.16;100.00;99946.25;678325;29;975;-51
2022/02/07 00:31:54;;;;;;;9.10;1.90;;;;;;;2.21;100.00;99951.47;678462;29;4541;-50
2022/02/07 00:32:14;;;;;;;8.68;2.10;;;;;;;2.23;100.00;99947.22;678403;28;1146;-50
2022/02/07 00:32:35;;;;;;;9.67;2.10;;;;;;;2.28;100.00;99944.72;678931;28;1365;-49
2022/02/07 00:32:55;;;;;;;10.68;2.05;;;;;;;2.34;100.00;99944.81;681800;28;1278;-50
2022/02/07 00:33:16;;;;;;;9.83;1.90;;;;;;;2.29;100.00;99952.47;680991;28;3455;-49
2022/02/07 00:33:36;;;;;;;8.00;1.97;;;;;;;2.28;100.00;99955.91;677941;28;1184;-49
2022/02/07 00:33:57;;;;;;;6.40;1.80;;;;;;;2.32;100.00;99949.09;677837;28;1596;-49
2022/02/07 00:34:17;;;;;;;7.43;2.00;;;;;;;2.28;100.00;99940.41;677808;28;1208;-50
2022/02/07 00:34:39;;;;;;;10.60;1.90;;;;;;;2.22;100.00;99953.22;677108;29;1185;-49
2022/02/07 00:34:59;;;;;;;7.22;1.73;;;;;;;2.25;100.00;99944.69;670253;29;4318;-50
2022/02/07 00:35:23;;;;;;;9.35;1.73;;;;;;;2.21;100.00;99949.75;671582;29;941;-50
2022/02/07 00:35:43;;;;;;;9.60;1.90;;;;;;;2.23;100.00;99944.66;675284;29;1215;-51
2022/02/07 00:36:04;;;;;;;8.38;1.70;;;;;;;2.24;100.00;99958.41;675277;29;3434;-50
2022/02/07 00:36:24;;;;;;;7.97;1.70;;;;;;;2.21;100.00;99961.78;676422;28;1231;-50
2022/02/07 00:36:45;;;;;;;7.03;1.73;;;;;;;2.27;100.00;99966.19;678990;28;1017;-49
2022/02/07 00:37:06;;;;;;;8.38;1.92;;;;;;;2.32;100.00;99956.81;681241;28;1358;-48
2022/02/07 00:37:29;;;;;;;8.48;1.58;;;;;;;2.31;100.00;99957.66;680038;28;1270;-49
2022/02/07 00:37:54;;;;;;;7.95;1.40;;;;;;;2.37;100.00;99958.66;678993;28;4555;-49
2022/02/07 00:38:18;;;;;;;8.10;1.65;;;;;;;2.29;100.00;99952.47;679287;28;967;-51
2022/02/07 00:38:41;;;;;;;8.18;1.70;;;;;;;2.33;100.00;99962.00;678299;28;3556;-49
2022/02/07 00:39:08;;;;;;;6.70;1.33;;;;;;;2.27;100.00;99946.44;680941;28;1424;-53
2022/02/07 00:39:36;;;;;;;9.68;1.90;;;;;;;2.27;100.00;99949.03;681378;28;1255;-51
2022/02/07 00:40:17;;;;;;;6.63;1.30;;;;;;;2.29;100.00;99946.47;677855;28;1236;-49
2022/02/07 00:40:48;;;;;;;10.13;1.50;;;;;;;2.25;100.00;99947.25;680039;28;1256;-49
2022/02/07 00:41:21;;;;;;;4.43;1.52;;;;;;;2.24;100.00;99941.22;677730;28;6660;-50
2022/02/07 00:41:49;;;;;;;6.60;1.30;;;;;;;2.33;100.00;99948.25;676736;29;3401;-49
2022/02/07 00:42:19;;;;;;;5.57;1.20;;;;;;;2.35;100.00;99942.28;678496;28;2396;-49
2022/02/07 00:42:54;;;;;;;6.90;1.27;;;;;;;2.50;100.00;99961.44;678836;29;1448;-50
2022/02/07 00:43:40;;;;;;;6.20;1.20;;;;;;;2.54;100.00;99968.38;673914;29;1084;-49
2022/02/07 00:44:10;;;;;;;5.90;1.08;;;;;;;2.49;100.00;99970.00;671929;29;4386;-53
2022/02/07 00:44:33;;;;;;;6.40;1.25;;;;;;;2.43;100.00;99969.91;675705;28;2208;-51
2022/02/07 00:44:55;;;;;;;5.40;1.20;;;;;;;2.43;100.00;99970.78;676010;29;1449;-49
2022/02/07 00:45:25;;;;;;;6.57;1.60;;;;;;;2.38;100.00;99957.81;678321;28;1307;-49
2022/02/07 00:46:14;;;;;;;8.88;2.00;;;;;;;2.46;100.00;99969.97;678126;28;1091;-50
2022/02/07 00:46:39;;;;;;;6.65;1.02;;;;;;;2.49;100.00;99977.75;677429;29;884;-53
2022/02/07 00:47:06;;;;;;;5.65;1.10;;;;;;;2.51;100.00;99974.34;676758;28;4549;-50
2022/02/07 00:47:26;;;;;;;4.50;1.00;;;;;;;2.48;100.00;99973.41;679310;28;1366;-49
2022/02/07 00:47:47;;;;;;;5.20;1.20;;;;;;;2.44;100.00;99979.38;675844;29;1441;-50
2022/02/07 00:48:10;;;;;;;5.82;1.40;;;;;;;2.47;100.00;99977.72;676430;29;2517;-52
2022/02/07 00:48:33;;;;;;;6.57;1.15;;;;;;;2.46;100.00;99986.31;675830;29;1201;-51
2022/02/07 00:48:53;;;;;;;5.20;1.20;;;;;;;2.47;100.00;99982.88;677719;29;916;-52
2022/02/07 00:49:14;;;;;;;7.10;1.10;;;;;;;2.49;100.00;99986.38;678231;28;1170;-52
2022/02/07 00:49:35;;;;;;;6.50;1.33;;;;;;;2.53;100.00;99989.84;674908;29;1056;-52
2022/02/07 00:49:56;;;;;;;6.27;1.30;;;;;;;2.49;100.00;99981.22;672778;29;4606;-49
2022/02/07 00:50:17;;;;;;;5.97;1.10;;;;;;;2.45;100.00;99992.31;669459;29;3409;-53
2022/02/07 00:50:40;;;;;;;5.37;1.37;;;;;;;2.44;100.00;99992.28;672389;29;1275;-50
2022/02/07 00:51:02;;;;;;;4.30;1.27;;;;;;;2.38;100.00;99995.63;669304;29;1787;-54
2022/02/07 00:51:24;;;;;;;5.60;1.30;;;;;;;2.31;100.00;99994.66;671580;29;926;-51
2022/02/07 00:51:44;;;;;;;4.10;1.08;;;;;;;2.29;100.00;99996.34;675380;29;1275;-50
2022/02/07 00:52:05;;;;;;;6.20;1.17;;;;;;;2.30;100.00;99998.06;674311;29;1377;-56
2022/02/07 00:52:28;;;;;;;5.45;1.00;;;;;;;2.35;100.00;99993.88;673751;29;1506;-51
2022/02/07 00:52:48;;;;;;;4.82;1.00;;;;;;;2.38;100.00;100003.34;673933;29;4736;-52
2022/02/07 00:53:13;;;;;;;5.65;1.30;;;;;;;2.35;100.00;100011.03;675637;29;2150;-51
2022/02/07 00:53:37;;;;;;;4.40;1.08;;;;;;;2.34;100.00;100002.44;676790;29;1149;-53
2022/02/07 00:53:58;;;;;;;5.72;1.00;;;;;;;2.36;100.00;100013.66;674634;29;1434;-50
2022/02/07 00:54:20;;;;;;;4.47;1.10;;;;;;;2.29;100.00;100009.22;672569;29;1194;-50
2022/02/07 00:54:41;;;;;;;4.03;0.98;;;;;;;2.32;100.00;100008.41;673737;29;1408;-50
2022/02/07 00:55:02;;;;;;;6.15;1.08;;;;;;;2.27;100.00;100017.78;671298;29;1225;-50
2022/02/07 00:55:23;;;;;;;5.72;0.90;;;;;;;2.25;100.00;100011.72;669227;29;791;-51
2022/02/07 00:55:43;;;;;;;4.23;0.90;;;;;;;2.20;100.00;100027.09;673044;29;4476;-54
2022/02/07 00:56:04;;;;;;;4.70;0.97;;;;;;;2.20;100.00;100016.78;673321;29;3687;-52
2022/02/07 00:56:28;;;;;;;3.47;0.95;;;;;;;2.20;100.00;100024.53;670957;29;1813;-49
2022/02/07 00:56:50;;;;;;;5.32;1.13;;;;;;;2.15;100.00;100027.03;672152;29;1454;-51
2022/02/07 00:57:11;;;;;;;7.30;1.38;;;;;;;2.20;100.00;100024.53;672148;29;1430;-52
2022/02/07 00:57:31;;;;;;;4.60;1.00;;;;;;;2.27;100.00;100026.41;675851;29;2673;-51
2022/02/07 00:57:54;;;;;;;3.83;0.98;;;;;;;2.31;100.00;100040.19;674558;29;1588;-51
2022/02/07 00:58:14;;;;;;;6.00;1.00;;;;;;;2.31;100.00;100037.63;675131;29;1701;-50
2022/02/07 00:58:36;;;;;;;4.75;1.00;;;;;;;2.32;100.00;100040.22;673083;29;2918;-51
2022/02/07 00:58:58;;;;;;;4.63;1.00;;;;;;;2.27;100.00;100031.56;671111;29;4507;-51
2022/02/07 00:59:19;;;;;;;4.82;1.13;;;;;;;2.23;100.00;100034.91;673381;29;1496;-54
2022/02/07 00:59:40;;;;;;;5.10;0.93;;;;;;;2.25;100.00;100038.38;671635;29;1345;-54
2022/02/07 01:00:01;;;;;;;6.38;1.00;;;;;;;2.22;100.00;100038.34;676173;29;1530;-53
2022/02/07 01:00:24;;;;;;;5.75;0.98;;;;;;;2.18;100.00;100036.53;674312;29;1685;-51
2022/02/07 01:00:44;;;;;;;2.90;0.90;;;;;;;2.15;100.00;100049.38;673707;29;1211;-52
2022/02/07 01:01:04;;;;;;;3.65;0.88;;;;;;;2.14;100.00;100039.88;674229;29;1176;-50
2022/02/07 01:01:30;;;;;;;5.15;1.10;;;;;;;2.11;100.00;100043.28;673691;29;3719;-50
2022/02/07 01:01:51;;;;;;;3.97;1.07;;;;;;;2.10;100.00;100045.81;672472;29;4617;-50
2022/02/07 01:02:11;;;;;;;4.55;0.90;;;;;;;2.02;100.00;100049.13;670827;29;1294;-54
2022/02/07 01:02:32;;;;;;;5.38;1.02;;;;;;;2.12;100.00;100046.72;671607;29;1238;-50
2022/02/07 01:02:53;;;;;;;5.80;1.20;;;;;;;2.17;100.00;100047.69;674176;29;921;-49
2022/02/07 01:03:14;;;;;;;5.43;1.00;;;;;;;2.17;100.00;100047.69;673994;29;1257;-50
2022/02/07 01:03:35;;;;;;;4.50;0.93;;;;;;;2.18;100.00;100057.16;674870;29;2353;-52
2022/02/07 01:03:55;;;;;;;4.20;1.00;;;;;;;2.22;100.00;100049.50;674743;29;1531;-51
2022/02/07 01:04:22;;;;;;;4.57;0.98;;;;;;;2.29;100.00;100050.50;675650;29;3489;-50
2022/02/07 01:04:55;;;;;;;3.15;0.80;;;;;;;2.31;100.00;100042.78;675145;29;5455;-52
2022/02/07 01:05:16;;;;;;;4.53;0.90;;;;;;;2.25;100.00;100059.00;673502;29;1182;-51
2022/02/07 01:05:37;;;;;;;3.63;0.90;;;;;;;2.21;100.00;100052.91;673697;29;2062;-59
2022/02/07 01:06:05;;;;;;;4.55;1.00;;;;;;;2.17;100.00;100060.56;674319;29;1768;-51
2022/02/07 01:06:26;;;;;;;3.05;0.82;;;;;;;2.23;100.00;100055.56;673386;29;1570;-53
2022/02/07 01:06:53;;;;;;;4.38;0.90;;;;;;;2.21;100.00;100058.06;673962;29;1177;-51
2022/02/07 01:07:22;;;;;;;4.75;0.95;;;;;;;2.16;100.00;100053.66;674136;29;3864;-50
2022/02/07 01:07:47;;;;;;;3.77;0.80;;;;;;;2.16;100.00;100064.88;669724;29;4570;-53
2022/02/07 01:08:08;;;;;;;4.07;0.95;;;;;;;2.16;100.00;100063.97;672039;29;2082;-54
2022/02/07 01:08:43;;;;;;;3.33;0.90;;;;;;;2.09;100.00;100064.72;674596;29;2089;-53
2022/02/07 01:09:43;;;;;;;6.18;1.20;;;;;;;1.91;100.00;100076.41;675483;29;1224;-49
2022/02/07 01:10:06;;;;;;;3.17;0.80;;;;;;;1.83;100.00;100065.91;674673;29;3177;-50
2022/02/07 01:10:49;;;;;;;3.90;1.10;;;;;;;1.93;100.00;100073.84;667179;29;1401;-54
2022/02/07 01:11:17;;;;;;;4.85;0.93;;;;;;;1.97;100.00;100073.06;666808;29;6403;-51
2022/02/07 01:12:08;;;;;;;5.63;1.20;;;;;;;1.96;100.00;100068.75;670909;29;1740;-50
2022/02/07 01:13:22;;;;;;;2.80;0.80;;;;;;;2.16;100.00;100074.28;679019;28;1497;-51
2022/02/07 01:14:24;;;;;;;3.57;1.00;;;;;;;2.18;100.00;100083.81;676013;29;1243;-49
2022/02/07 01:15:13;;;;;;;5.03;1.00;;;;;;;2.21;100.00;100078.69;673241;29;1636;-54
2022/02/07 01:15:47;;;;;;;5.93;1.20;;;;;;;2.19;100.00;100089.84;675008;29;2259;-51
2022/02/07 01:19:17;;;;;;;6.53;1.08;;;;;;;2.17;100.00;100091.53;674622;28;3753;-52
2022/02/07 01:19:59;;;;;;;4.57;1.00;;;;;;;2.15;100.00;100095.78;672325;29;1779;-53
2022/02/07 01:23:23;;;;;;;4.78;1.20;;;;;;;1.86;100.00;100099.47;675988;29;4399;-53
2022/02/07 01:46:20;;;;;;;7.80;1.30;;;;;;;1.69;100.00;100181.59;681316;28;1031;-50
2022/02/07 01:50:30;;;;;;;7.15;1.48;;;;;;;1.66;100.00;100212.44;670504;29;4393;-53
2022/02/07 01:52:01;;;;;;;10.10;1.70;;;;;;;1.83;100.00;100206.81;673109;29;1328;-54
2022/02/07 01:55:34;;;;;;;11.80;1.83;;;;;;;1.75;100.00;100231.53;671908;29;1373;-50
2022/02/07 01:55:43;;;;;;;8.48;1.50;;;;;;;1.70;100.00;100234.88;670501;29;1423;-52
2022/02/07 01:56:08;;;;;;;8.35;1.50;;;;;;;1.69;100.00;100235.69;673984;29;5078;-50
2022/02/07 01:56:35;;;;;;;8.70;1.50;;;;;;;1.66;100.00;100235.63;676229;29;1496;-52
2022/02/07 01:56:55;;;;;;;11.68;2.22;;;;;;;1.76;100.00;100235.84;679864;29;1327;-52
2022/02/07 01:57:16;;;;;;;7.75;1.58;;;;;;;1.75;100.00;100242.72;680194;28;1323;-52
2022/02/07 01:57:44;;;;;;;8.65;1.38;;;;;;;1.75;100.00;100241.84;676069;29;2122;-51
2022/02/07 01:58:09;;;;;;;12.90;1.65;;;;;;;1.72;100.00;100242.63;672991;29;3481;-51
2022/02/07 01:58:30;;;;;;;9.35;1.92;;;;;;;1.87;100.00;100248.16;674440;29;1243;-51
2022/02/07 01:58:51;;;;;;;8.23;1.73;;;;;;;1.91;100.00;100250.81;672006;29;4642;-51
2022/02/07 01:59:14;;;;;;;8.52;1.55;;;;;;;1.94;100.00;100246.59;671506;29;1002;-51
2022/02/07 01:59:37;;;;;;;10.40;1.60;;;;;;;2.01;100.00;100245.91;672889;29;1314;-54
2022/02/07 01:59:57;;;;;;;10.25;1.70;;;;;;;1.99;100.00;100257.88;673883;29;1808;-54
2022/02/07 02:00:18;;;;;;;10.15;1.90;;;;;;;1.95;100.00;100257.78;675118;29;1455;-51
2022/02/07 02:00:41;;;;;;;11.32;1.90;;;;;;;2.01;100.00;100257.94;676370;29;1142;-53
2022/02/07 02:01:01;;;;;;;9.35;1.90;;;;;;;1.97;100.00;100259.56;676408;28;3328;-52
2022/02/07 02:01:23;;;;;;;10.67;1.97;;;;;;;2.00;100.00;100258.75;677759;29;1218;-50
2022/02/07 02:01:43;;;;;;;8.65;2.00;;;;;;;1.98;100.00;100255.25;675852;29;4950;-51
2022/02/07 02:02:05;;;;;;;8.85;1.80;;;;;;;1.95;100.00;100256.09;674037;29;1183;-51
2022/02/07 02:02:25;;;;;;;8.80;1.95;;;;;;;1.96;100.00;100262.97;674064;29;1494;-51
2022/02/07 02:02:47;;;;;;;6.57;1.77;;;;;;;1.90;100.00;100260.25;674349;29;1400;-50
2022/02/07 02:03:19;;;;;;;8.43;1.60;;;;;;;1.90;100.00;100265.41;674506;29;979;-50
2022/02/07 02:03:52;;;;;;;8.85;1.67;;;;;;;1.91;100.00;100262.00;675093;28;3281;-50
2022/02/07 02:04:13;;;;;;;9.95;1.98;;;;;;;2.01;100.00;100266.53;678346;28;1609;-49
2022/02/07 02:04:35;;;;;;;11.27;1.88;;;;;;;1.97;100.00;100264.72;677138;28;1248;-49
2022/02/07 02:04:56;;;;;;;9.87;1.70;;;;;;;1.94;100.00;100264.66;673658;29;4552;-51
2022/02/07 02:05:31;;;;;;;9.48;1.73;;;;;;;1.93;100.00;100269.78;676519;29;991;-51
2022/02/07 02:05:55;;;;;;;10.48;2.05;;;;;;;1.90;100.00;100272.25;676416;29;1323;-51
2022/02/07 02:06:23;;;;;;;10.02;1.73;;;;;;;1.95;100.00;100263.81;672871;29;1377;-50
2022/02/07 02:06:53;;;;;;;9.80;1.80;;;;;;;1.92;100.00;100278.34;675249;29;3710;-51
2022/02/07 02:07:18;;;;;;;9.52;1.65;;;;;;;1.86;100.00;100268.75;674194;29;1265;-53
2022/02/07 02:07:40;;;;;;;11.00;1.60;;;;;;;1.83;100.00;100277.28;673165;29;1099;-53
2022/02/07 02:08:00;;;;;;;11.05;1.75;;;;;;;1.81;100.00;100278.06;677211;28;4294;-51
2022/02/07 02:08:21;;;;;;;10.00;1.90;;;;;;;1.82;100.00;100290.13;677257;29;1256;-54
2022/02/07 02:08:44;;;;;;;10.02;1.80;;;;;;;1.90;100.00;100277.41;674014;29;1402;-54
2022/02/07 02:09:06;;;;;;;9.33;1.73;;;;;;;1.90;100.00;100288.63;674345;29;1126;-54
2022/02/07 02:09:31;;;;;;;8.00;1.67;;;;;;;1.89;100.00;100275.69;673124;29;3367;-52
2022/02/07 02:09:55;;;;;;;8.80;1.83;;;;;;;1.86;100.00;100290.22;675421;29;1436;-51
2022/02/07 02:10:16;;;;;;;10.15;2.00;;;;;;;1.86;100.00;100291.94;671919;29;1980;-51
2022/02/07 02:10:44;;;;;;;9.43;1.80;;;;;;;1.84;100.00;100286.75;673662;29;1070;-53
2022/02/07 02:11:08;;;;;;;8.80;2.30;;;;;;;1.92;100.00;100289.50;670780;29;4980;-49
2022/02/07 02:11:33;;;;;;;13.05;2.10;;;;;;;1.92;100.00;100291.22;671565;29;1343;-52
2022/02/07 02:11:53;;;;;;;11.80;1.90;;;;;;;1.94;100.00;100294.69;672966;29;1325;-51
2022/02/07 02:12:15;;;;;;;11.20;1.90;;;;;;;2.08;100.00;100295.03;674847;29;1858;-52
2022/02/07 02:12:52;;;;;;;11.95;1.85;;;;;;;2.09;100.00;100299.34;676119;29;3608;-50
2022/02/07 02:14:24;;;;;;;8.23;2.20;;;;;;;2.07;100.00;100301.03;666336;29;4453;-50
2022/02/07 02:15:00;;;;;;;10.63;1.70;;;;;;;2.00;100.00;100300.03;667761;29;794;-51
2022/02/07 02:15:34;;;;;;;10.52;1.85;;;;;;;1.92;100.00;100307.56;676272;29;3779;-53
2022/02/07 02:16:15;;;;;;;9.77;2.05;;;;;;;1.98;100.00;100312.88;676601;29;1307;-53
2022/02/07 02:16:56;;;;;;;10.27;1.92;;;;;;;1.93;100.00;100319.63;677294;29;1604;-53
2022/02/07 02:18:01;;;;;;;9.45;1.67;;;;;;;2.13;100.00;100316.66;676029;29;5214;-53
2022/02/07 02:32:51;;;;;;;9.40;1.85;;;;;;;2.27;100.00;100353.97;678957;28;890;-53
2022/02/07 02:33:44;;;;;;;9.75;2.15;;;;;;;2.20;100.00;100381.31;678360;28;1373;-51
2022/02/07 02:36:41;;;;;;;9.98;1.80;;;;;;;2.19;100.00;100404.50;674911;29;1381;-51
2022/02/07 02:38:47;;;;;;;12.25;2.00;;;;;;;2.15;100.00;100420.72;668365;29;5073;-53
2022/02/07 02:45:37;;;;;;;11.40;2.42;;;;;;;1.92;100.00;100431.28;668664;29;1262;-51
2022/02/07 02:46:17;;;;;;;10.00;1.80;;;;;;;2.08;100.00;100431.69;676935;28;3462;-50
2022/02/07 02:46:38;;;;;;;12.52;2.30;;;;;;;2.17;100.00;100431.94;676929;29;3906;-49
2022/02/07 02:46:58;;;;;;;12.73;2.17;;;;;;;2.15;100.00;100433.63;675142;28;4547;-49
2022/02/07 02:47:22;;;;;;;10.75;2.35;;;;;;;2.12;100.00;100442.16;676693;29;979;-49
2022/02/07 02:47:46;;;;;;;11.25;2.30;;;;;;;2.13;100.00;100445.59;680533;29;1647;-48
2022/02/07 02:48:24;;;;;;;10.93;2.10;;;;;;;2.16;100.00;100445.66;675369;29;1472;-50
2022/02/07 02:48:47;;;;;;;12.05;2.20;;;;;;;2.16;100.00;100443.09;676003;29;1324;-51
2022/02/07 02:49:07;;;;;;;9.30;1.85;;;;;;;2.15;100.00;100452.53;675782;29;3129;-54
2022/02/07 02:49:33;;;;;;;9.55;1.95;;;;;;;2.09;100.00;100444.66;674228;29;3701;-50
2022/02/07 02:50:04;;;;;;;12.15;2.30;;;;;;;2.07;100.00;100448.88;671820;29;4426;-49
2022/02/07 02:50:29;;;;;;;9.70;1.67;;;;;;;2.01;100.00;100454.75;676176;29;900;-51
2022/02/07 02:50:54;;;;;;;10.05;2.00;;;;;;;2.06;100.00;100459.16;676626;29;959;-53
2022/02/07 02:51:16;;;;;;;10.05;1.80;;;;;;;1.99;100.00;100453.81;674931;29;1119;-50
2022/02/07 02:51:36;;;;;;;11.98;1.90;;;;;;;2.00;100.00;100455.59;672784;29;1234;-52
2022/02/07 02:51:56;;;;;;;11.27;2.07;;;;;;;2.01;100.00;100465.06;672793;29;3634;-52
2022/02/07 02:52:17;;;;;;;10.93;1.63;;;;;;;1.99;100.00;100463.28;676149;29;3926;-51
2022/02/07 02:52:38;;;;;;;8.13;1.60;;;;;;;2.00;100.00;100465.91;672615;29;1307;-49
2022/02/07 02:53:11;;;;;;;10.98;1.77;;;;;;;2.00;100.00;100468.47;674128;29;4262;-49
2022/02/07 02:53:33;;;;;;;7.95;1.67;;;;;;;1.97;100.00;100470.13;672292;29;1258;-52
2022/02/07 02:53:54;;;;;;;8.38;1.83;;;;;;;1.97;100.00;100470.97;674520;29;1473;-52
2022/02/07 02:54:14;;;;;;;8.25;1.65;;;;;;;2.04;100.00;100470.31;675385;29;1328;-50
2022/02/07 02:54:34;;;;;;;10.13;1.90;;;;;;;2.06;100.00;100469.47;676155;29;939;-49
2022/02/07 02:54:55;;;;;;;9.85;1.85;;;;;;;2.01;100.00;100466.78;675660;29;3560;-50
2022/02/07 02:55:16;;;;;;;9.10;1.58;;;;;;;1.97;100.00;100476.13;671644;29;1398;-49
2022/02/07 02:55:39;;;;;;;8.67;1.50;;;;;;;1.95;100.00;100482.97;670663;29;1290;-50
2022/02/07 02:56:02;;;;;;;9.10;1.90;;;;;;;1.92;100.00;100480.28;668103;29;4643;-50
2022/02/07 02:56:38;;;;;;;7.30;1.80;;;;;;;1.86;100.00;100478.41;670208;29;1408;-53
2022/02/07 02:57:01;;;;;;;7.25;1.70;;;;;;;1.93;100.00;100481.19;672733;29;1471;-54
2022/02/07 02:57:22;;;;;;;7.95;1.60;;;;;;;1.96;100.00;100487.28;672613;29;1629;-53
2022/02/07 02:57:42;;;;;;;8.57;1.60;;;;;;;1.89;100.00;100487.94;673001;29;3511;-50
2022/02/07 02:58:04;;;;;;;7.93;1.60;;;;;;;1.85;100.00;100492.13;671194;29;2071;-50
2022/02/07 02:58:24;;;;;;;7.43;1.60;;;;;;;1.90;100.00;100492.28;670709;29;1341;-49
2022/02/07 02:58:49;;;;;;;7.50;1.50;;;;;;;1.83;100.00;100493.81;673921;29;4469;-50
2022/02/07 02:59:10;;;;;;;8.13;1.67;;;;;;;1.81;100.00;100489.44;676126;29;1218;-49
2022/02/07 02:59:33;;;;;;;6.68;1.35;;;;;;;1.85;100.00;100499.00;677426;29;1403;-50
2022/02/07 02:59:53;;;;;;;8.80;1.50;;;;;;;1.92;100.00;100498.31;675953;29;1337;-50